Time;durP1;ratioP1;P1;durP2;ratioP2;P2;SDS_P1;SDS_P2;PMS_P1;PMS_P2;Temp;Humidity;BMP_temperature;BMP_pressure;BME280_temperature;BME280_humidity;BME280_pressure;Samples;Min_cycle;Max_cycle;Signal;HPM_P1;HPM_P2
2022/07/09 00:01:39;;;;;;;;;;;;;;;22.72;27.77;97491.16;5015173;28;978;-82
2022/07/09 00:04:04;;;;;;;;;;;;;;;22.77;27.78;97484.88;5015661;28;1096;-82
2022/07/09 00:06:31;;;;;;;;;;;;;;;22.71;27.88;97483.13;5015051;28;842;-82
2022/07/09 00:08:57;;;;;;;;;;;;;;;22.64;28.00;97481.34;5016342;28;1975;-81
2022/07/09 00:11:22;;;;;;;;;;;;;;;22.68;27.80;97479.16;5016391;28;967;-81
2022/07/09 00:13:48;;;;;;;;;;;;;;;22.71;28.04;97481.06;5016157;28;805;-82
2022/07/09 00:16:13;;;;;;;;;;;;;;;22.52;28.30;97485.03;5016173;28;919;-82
2022/07/09 00:18:39;;;;;;;;;;;;;;;22.33;28.57;97476.44;5016015;28;852;-81
2022/07/09 00:21:04;;;;;;;;;;;;;;;22.53;28.08;97478.13;5016621;28;968;-82
2022/07/09 00:23:29;;;;;;;;;;;;;;;22.52;28.17;97482.22;5015946;28;920;-82
2022/07/09 00:25:55;;;;;;;;;;;;;;;22.74;27.66;97477.31;5016363;28;838;-80
2022/07/09 00:28:20;;;;;;;;;;;;;;;22.62;28.01;97481.00;5016162;28;964;-81
2022/07/09 00:30:46;;;;;;;;;;;;;;;22.60;28.20;97483.53;5016003;28;1910;-82
2022/07/09 00:33:11;;;;;;;;;;;;;;;22.39;28.61;97484.34;5033131;28;952;-82
2022/07/09 00:35:37;;;;;;;;;;;;;;;22.56;28.13;97483.66;5033606;28;920;-82
2022/07/09 00:38:02;;;;;;;;;;;;;;;22.43;28.48;97482.16;5017358;28;960;-82
2022/07/09 00:40:28;;;;;;;;;;;;;;;22.60;28.48;97480.69;5033309;28;1063;-82
2022/07/09 00:42:53;;;;;;;;;;;;;;;22.67;27.93;97477.56;5033828;28;905;-82
2022/07/09 00:45:19;;;;;;;;;;;;;;;22.62;28.15;97475.34;5033452;28;856;-79
2022/07/09 00:47:44;;;;;;;;;;;;;;;22.70;28.03;97476.66;5033565;28;1045;-81
2022/07/09 00:50:10;;;;;;;;;;;;;;;22.54;28.51;97474.06;5033146;28;1983;-83
2022/07/09 00:52:35;;;;;;;;;;;;;;;22.58;28.21;97480.34;5033181;28;998;-81
2022/07/09 00:55:01;;;;;;;;;;;;;;;22.56;28.21;97478.00;5033324;28;946;-82
2022/07/09 00:57:26;;;;;;;;;;;;;;;22.62;28.24;97475.34;5033435;28;914;-81
2022/07/09 00:59:52;;;;;;;;;;;;;;;22.69;27.92;97472.25;5033485;28;1009;-82
2022/07/09 01:02:17;;;;;;;;;;;;;;;22.62;28.27;97464.00;5033139;28;1017;-82
2022/07/09 01:04:43;;;;;;;;;;;;;;;22.68;27.85;97473.47;5031061;28;1058;-83
2022/07/09 01:07:08;;;;;;;;;;;;;;;22.58;28.14;97464.13;5015585;28;948;-82
2022/07/09 01:09:34;;;;;;;;;;;;;;;22.48;28.40;97468.16;5015620;28;1914;-82
2022/07/09 01:11:59;;;;;;;;;;;;;;;22.53;28.30;97472.44;5015548;28;962;-82
2022/07/09 01:14:25;;;;;;;;;;;;;;;22.62;27.73;97478.16;5016031;28;913;-82
2022/07/09 01:16:57;;;;;;;;;;;;;;;22.66;27.80;97476.00;5019339;28;759;-82
2022/07/09 01:19:23;;;;;;;;;;;;;;;22.64;27.75;97484.19;5019016;28;904;-82
2022/07/09 01:21:48;;;;;;;;;;;;;;;22.48;28.15;97482.34;5019093;28;840;-83
2022/07/09 01:24:14;;;;;;;;;;;;;;;22.48;27.79;97479.50;5018339;28;919;-82
2022/07/09 01:26:39;;;;;;;;;;;;;;;22.48;27.83;97479.50;5018028;28;1267;-82
2022/07/09 01:29:05;;;;;;;;;;;;;;;22.62;27.64;97475.34;5019107;28;1967;-80
2022/07/09 01:31:30;;;;;;;;;;;;;;;22.59;27.91;97477.06;5018947;28;979;-81
2022/07/09 01:33:56;;;;;;;;;;;;;;;22.53;27.70;97478.13;5019296;28;1092;-82
2022/07/09 01:36:21;;;;;;;;;;;;;;;22.75;27.45;97473.22;5018893;28;942;-81
2022/07/09 01:38:47;;;;;;;;;;;;;;;22.66;27.58;97480.88;5018974;28;888;-82
2022/07/09 01:41:12;;;;;;;;;;;;;;;22.50;27.80;97479.06;5033002;28;990;-81
2022/07/09 01:43:38;;;;;;;;;;;;;;;22.53;27.77;97478.13;5019288;28;848;-82
2022/07/09 01:46:03;;;;;;;;;;;;;;;22.56;27.65;97482.88;5018865;28;785;-82
2022/07/09 01:48:29;;;;;;;;;;;;;;;22.59;27.54;97481.97;5018688;28;1222;-82
2022/07/09 01:50:54;;;;;;;;;;;;;;;22.48;27.80;97484.38;5018524;28;1959;-80
2022/07/09 01:53:20;;;;;;;;;;;;;;;22.61;27.61;97476.59;5018841;28;834;-83
2022/07/09 01:55:46;;;;;;;;;;;;;;;22.52;27.70;97477.34;5018395;28;854;-82
2022/07/09 01:58:11;;;;;;;;;;;;;;;22.50;27.64;97467.72;5016294;28;1572;-81
2022/07/09 02:00:37;;;;;;;;;;;;;;;22.39;28.14;97465.31;5018767;28;877;-82
2022/07/09 02:03:02;;;;;;;;;;;;;;;22.54;27.65;97465.53;5016398;28;921;-81
2022/07/09 02:05:29;;;;;;;;;;;;;;;22.56;27.73;97460.19;5018665;28;876;-82
2022/07/09 02:07:54;;;;;;;;;;;;;;;22.61;27.76;97462.41;5018452;28;832;-81
2022/07/09 02:10:20;;;;;;;;;;;;;;;22.54;27.70;97451.38;5018662;28;1898;-81
2022/07/09 02:12:46;;;;;;;;;;;;;;;22.63;27.39;97451.38;5018202;28;1004;-82
2022/07/09 02:15:12;;;;;;;;;;;;;;;22.60;27.49;97460.84;5016984;28;884;-82
2022/07/09 02:17:38;;;;;;;;;;;;;;;22.66;27.39;97470.31;5018367;28;924;-81
2022/07/09 02:20:03;;;;;;;;;;;;;;;22.60;27.68;97467.31;5017904;28;947;-81
2022/07/09 02:22:29;;;;;;;;;;;;;;;22.44;27.83;97464.69;5018182;28;895;-81
2022/07/09 02:24:54;;;;;;;;;;;;;;;22.57;27.69;97459.72;5016604;28;964;-81
2022/07/09 02:27:20;;;;;;;;;;;;;;;22.59;27.57;97460.06;5017241;28;903;-82
2022/07/09 02:29:45;;;;;;;;;;;;;;;22.51;27.85;97469.28;5017988;28;1981;-80
2022/07/09 02:32:11;;;;;;;;;;;;;;;22.53;27.76;97466.78;5018564;28;834;-82
2022/07/09 02:34:37;;;;;;;;;;;;;;;22.48;27.81;97473.84;5032374;28;874;-82
2022/07/09 02:37:02;;;;;;;;;;;;;;;22.35;28.05;97473.94;5016609;28;870;-81
2022/07/09 02:39:28;;;;;;;;;;;;;;;22.48;27.88;97470.22;5017935;28;912;-82
2022/07/09 02:41:53;;;;;;;;;;;;;;;22.61;27.95;97479.44;5017870;28;893;-81
2022/07/09 02:44:19;;;;;;;;;;;;;;;22.47;28.09;97474.31;5017502;28;982;-82
2022/07/09 02:46:44;;;;;;;;;;;;;;;22.35;28.31;97485.28;5017959;28;1034;-82
2022/07/09 02:49:10;;;;;;;;;;;;;;;22.34;28.31;97480.84;5017741;28;2048;-82
2022/07/09 02:51:35;;;;;;;;;;;;;;;22.52;28.12;97474.50;5031943;28;927;-81
2022/07/09 02:54:01;;;;;;;;;;;;;;;22.51;27.96;97470.09;5017514;28;944;-83
2022/07/09 02:56:26;;;;;;;;;;;;;;;22.44;28.01;97469.59;5017165;28;924;-81
2022/07/09 02:58:52;;;;;;;;;;;;;;;22.48;28.14;97464.53;5017546;28;927;-82
2022/07/09 03:01:17;;;;;;;;;;;;;;;22.56;27.86;97471.53;5017100;28;842;-82
2022/07/09 03:03:43;;;;;;;;;;;;;;;22.52;28.03;97471.66;5017812;28;711;-82
2022/07/09 03:06:08;;;;;;;;;;;;;;;22.38;28.24;97465.75;5017859;28;867;-82
2022/07/09 03:08:34;;;;;;;;;;;;;;;22.29;28.18;97472.94;5017726;28;936;-82
2022/07/09 03:10:59;;;;;;;;;;;;;;;22.42;28.15;97474.91;5017429;28;1918;-82
2022/07/09 03:13:25;;;;;;;;;;;;;;;22.35;28.19;97473.16;5017274;28;1063;-81
2022/07/09 03:15:51;;;;;;;;;;;;;;;22.46;27.73;97467.06;5017266;28;904;-82
2022/07/09 03:18:16;;;;;;;;;;;;;;;22.48;28.12;97459.66;5034525;28;892;-81
2022/07/09 03:20:41;;;;;;;;;;;;;;;22.67;27.80;97460.56;5035224;28;926;-82
2022/07/09 03:23:07;;;;;;;;;;;;;;;22.63;27.68;97460.69;5036908;28;1194;-82
2022/07/09 03:25:32;;;;;;;;;;;;;;;22.62;28.02;97452.66;5044859;28;1256;-83
2022/07/09 03:27:59;;;;;;;;;;;;;;;22.43;28.41;97450.97;5033737;28;1225;-83
2022/07/09 03:30:24;;;;;;;;;;;;;;;22.49;28.19;97449.13;5004619;28;1922;-81
2022/07/09 03:32:50;;;;;;;;;;;;;;;22.53;28.51;97455.44;5003018;28;1229;-83
2022/07/09 03:35:15;;;;;;;;;;;;;;;22.39;28.73;97456.00;5004792;28;1344;-82
2022/07/09 03:37:41;;;;;;;;;;;;;;;22.65;28.33;97457.41;5013247;28;1551;-82
2022/07/09 03:40:07;;;;;;;;;;;;;;;22.55;28.49;97467.13;5009699;28;1584;-81
2022/07/09 03:42:32;;;;;;;;;;;;;;;22.52;28.73;97468.81;5014533;28;940;-82
2022/07/09 03:44:58;;;;;;;;;;;;;;;22.44;29.07;97463.91;5015005;28;996;-82
2022/07/09 03:47:23;;;;;;;;;;;;;;;22.45;28.82;97465.50;5014443;28;1050;-83
2022/07/09 03:49:49;;;;;;;;;;;;;;;22.48;29.03;97470.22;5014530;28;1914;-82
2022/07/09 03:52:14;;;;;;;;;;;;;;;22.46;28.97;97465.00;5014548;28;1065;-82
2022/07/09 03:54:40;;;;;;;;;;;;;;;22.50;29.07;97462.06;4995114;28;1400;-81
2022/07/09 03:57:05;;;;;;;;;;;;;;;22.62;28.82;97469.66;4991337;28;940;-80
2022/07/09 03:59:31;;;;;;;;;;;;;;;22.50;29.05;97459.22;4974991;28;1020;-83
2022/07/09 04:01:56;;;;;;;;;;;;;;;22.59;28.71;97465.72;5008091;28;1294;-83
2022/07/09 04:04:22;;;;;;;;;;;;;;;22.35;29.10;97467.47;5036683;28;818;-82
2022/07/09 04:06:47;;;;;;;;;;;;;;;22.56;29.19;97460.97;5036339;28;883;-81
2022/07/09 04:09:12;;;;;;;;;;;;;;;22.55;28.80;97465.06;5034454;28;1914;-82
2022/07/09 04:11:38;;;;;;;;;;;;;;;22.46;29.49;97472.72;5036250;28;920;-82
2022/07/09 04:14:03;;;;;;;;;;;;;;;22.61;28.82;97465.25;5053531;28;1197;-79
2022/07/09 04:16:29;;;;;;;;;;;;;;;22.41;29.48;97470.50;5053899;28;932;-82
2022/07/09 04:18:54;;;;;;;;;;;;;;;22.51;29.28;97463.63;5014275;28;924;-81
2022/07/09 04:21:23;;;;;;;;;;;;;;;22.11;29.47;97467.16;4994122;28;899;-82
2022/07/09 04:23:49;;;;;;;;;;;;;;;22.32;29.25;97469.19;4977250;28;1360;-81
2022/07/09 04:26:14;;;;;;;;;;;;;;;22.33;29.27;97459.44;4993582;28;1545;-83
2022/07/09 04:28:40;;;;;;;;;;;;;;;22.45;29.40;97459.81;4993871;28;924;-83
2022/07/09 04:31:05;;;;;;;;;;;;;;;22.44;28.97;97461.88;4994409;28;1987;-83
2022/07/09 04:33:31;;;;;;;;;;;;;;;22.34;29.40;97461.03;4994244;28;1303;-81
2022/07/09 04:35:56;;;;;;;;;;;;;;;22.62;29.21;97446.97;4955184;29;986;-79
2022/07/09 04:38:22;;;;;;;;;;;;;;;22.55;29.04;97450.91;4949913;28;1518;-82
2022/07/09 04:40:47;;;;;;;;;;;;;;;22.47;29.39;97440.28;4955235;29;881;-81
2022/07/09 04:43:13;;;;;;;;;;;;;;;22.48;29.29;97447.53;4955071;29;914;-82
2022/07/09 04:45:38;;;;;;;;;;;;;;;22.60;29.07;97443.84;4955232;29;1178;-80
2022/07/09 04:48:04;;;;;;;;;;;;;;;22.63;29.00;97448.56;4953678;29;1623;-82
2022/07/09 04:50:29;;;;;;;;;;;;;;;22.59;29.16;97439.44;4970257;28;1910;-80
2022/07/09 04:52:55;;;;;;;;;;;;;;;22.53;29.66;97446.94;5012871;28;906;-82
2022/07/09 04:55:21;;;;;;;;;;;;;;;22.59;29.29;97443.03;5001477;28;1453;-81
2022/07/09 04:57:46;;;;;;;;;;;;;;;22.69;29.20;97434.56;4993082;28;1776;-82
2022/07/09 05:00:12;;;;;;;;;;;;;;;22.47;29.83;97443.91;4997475;28;1647;-82
2022/07/09 05:02:38;;;;;;;;;;;;;;;22.63;29.22;97440.06;4997922;28;954;-82
2022/07/09 05:05:06;;;;;;;;;;;;;;;22.63;29.67;97426.66;4978621;28;966;-82
2022/07/09 05:07:31;;;;;;;;;;;;;;;22.62;29.76;97425.09;5022575;28;882;-80
2022/07/09 05:09:56;;;;;;;;;;;;;;;22.72;29.63;97428.75;5024599;28;1984;-82
2022/07/09 05:12:22;;;;;;;;;;;;;;;22.68;29.82;97416.75;5017030;28;891;-82
2022/07/09 05:14:47;;;;;;;;;;;;;;;22.73;29.88;97430.31;5000851;28;1042;-82
2022/07/09 05:17:13;;;;;;;;;;;;;;;22.61;30.03;97417.84;5049816;28;1714;-82
2022/07/09 05:19:38;;;;;;;;;;;;;;;22.61;29.92;97422.72;5056868;28;912;-83
2022/07/09 05:22:04;;;;;;;;;;;;;;;22.75;29.96;97430.66;5056731;28;847;-82
2022/07/09 05:24:29;;;;;;;;;;;;;;;22.63;29.84;97431.53;5036660;28;1034;-82
2022/07/09 05:26:55;;;;;;;;;;;;;;;22.58;30.35;97432.94;5036879;28;992;-82
2022/07/09 05:29:22;;;;;;;;;;;;;;;22.65;30.02;97434.72;5036900;28;1988;-82
2022/07/09 05:31:48;;;;;;;;;;;;;;;22.46;30.60;97433.03;5036638;28;1273;-82
2022/07/09 05:34:14;;;;;;;;;;;;;;;22.47;30.30;97426.13;5019653;28;917;-82
2022/07/09 05:36:39;;;;;;;;;;;;;;;22.59;30.14;97430.91;5000978;28;1305;-81
2022/07/09 05:39:07;;;;;;;;;;;;;;;22.77;30.03;97424.53;4977599;28;805;-81
2022/07/09 05:41:32;;;;;;;;;;;;;;;22.67;30.21;97426.53;4977578;28;906;-82
2022/07/09 05:43:58;;;;;;;;;;;;;;;22.68;30.25;97421.63;4978968;28;1221;-82
2022/07/09 05:46:23;;;;;;;;;;;;;;;22.62;30.48;97427.13;4977438;28;894;-82
2022/07/09 05:48:48;;;;;;;;;;;;;;;22.55;30.62;97421.75;4934293;28;1958;-82
2022/07/09 05:51:14;;;;;;;;;;;;;;;22.74;30.03;97423.41;4920405;29;1105;-81
2022/07/09 05:53:39;;;;;;;;;;;;;;;22.73;30.43;97423.88;4920089;29;1038;-82
2022/07/09 05:56:06;;;;;;;;;;;;;;;22.82;30.37;97426.75;4962840;28;981;-81
2022/07/09 05:58:31;;;;;;;;;;;;;;;22.68;30.62;97428.09;4969132;28;1441;-82
2022/07/09 06:00:57;;;;;;;;;;;;;;;22.63;30.47;97425.88;4975484;28;1348;-81
2022/07/09 06:03:22;;;;;;;;;;;;;;;22.51;30.58;97423.94;4991528;28;1061;-82
2022/07/09 06:05:47;;;;;;;;;;;;;;;22.68;30.38;97424.47;4997230;28;872;-82
2022/07/09 06:08:13;;;;;;;;;;;;;;;22.73;30.46;97424.66;4996570;28;914;-82
2022/07/09 06:10:38;;;;;;;;;;;;;;;22.63;30.40;97425.88;4996303;28;1976;-82
2022/07/09 06:13:04;;;;;;;;;;;;;;;22.69;30.12;97432.53;4996531;28;934;-82
2022/07/09 06:15:29;;;;;;;;;;;;;;;22.73;30.07;97424.66;5003498;28;1324;-82
2022/07/09 06:17:55;;;;;;;;;;;;;;;22.87;30.11;97429.75;5011203;28;1707;-82
2022/07/09 06:20:20;;;;;;;;;;;;;;;22.80;30.19;97424.38;5011607;28;1602;-82
2022/07/09 06:22:46;;;;;;;;;;;;;;;22.63;30.63;97417.38;4957472;28;971;-81
2022/07/09 06:25:11;;;;;;;;;;;;;;;22.79;30.24;97414.28;4968840;28;1769;-82
2022/07/09 06:27:37;;;;;;;;;;;;;;;22.76;30.26;97429.41;4975443;28;1742;-82
2022/07/09 06:30:03;;;;;;;;;;;;;;;22.86;30.19;97428.19;4958106;28;1973;-82
2022/07/09 06:32:28;;;;;;;;;;;;;;;22.67;30.20;97423.69;4962535;28;1640;-82
2022/07/09 06:34:53;;;;;;;;;;;;;;;22.47;30.77;97429.75;4938021;29;891;-82
2022/07/09 06:37:19;;;;;;;;;;;;;;;22.75;30.09;97416.47;4937665;29;963;-82
2022/07/09 06:39:44;;;;;;;;;;;;;;;22.72;30.54;97420.25;4938518;29;892;-82
2022/07/09 06:42:10;;;;;;;;;;;;;;;22.83;30.11;97417.75;4938040;29;1010;-82
2022/07/09 06:44:36;;;;;;;;;;;;;;;22.86;30.30;97422.50;4937015;29;1511;-81
2022/07/09 06:47:02;;;;;;;;;;;;;;;22.75;30.36;97427.84;4938264;29;1282;-81
2022/07/09 06:49:27;;;;;;;;;;;;;;;22.76;30.46;97426.56;4957246;29;1907;-81
2022/07/09 06:51:53;;;;;;;;;;;;;;;22.79;30.25;97427.66;4956599;29;964;-82
2022/07/09 06:54:18;;;;;;;;;;;;;;;22.87;30.26;97421.25;4971778;28;979;-82
2022/07/09 06:56:43;;;;;;;;;;;;;;;22.62;30.70;97419.41;4976751;28;756;-83
2022/07/09 06:59:09;;;;;;;;;;;;;;;22.63;30.79;97406.03;4976241;28;1832;-82
2022/07/09 07:01:34;;;;;;;;;;;;;;;22.71;30.24;97410.16;4991040;28;1733;-82
2022/07/09 07:04:00;;;;;;;;;;;;;;;22.70;30.50;97419.94;4996003;28;896;-82
2022/07/09 07:06:25;;;;;;;;;;;;;;;22.78;30.57;97406.25;4976235;28;881;-81
2022/07/09 07:08:51;;;;;;;;;;;;;;;22.79;30.43;97405.75;4969922;28;1977;-82
2022/07/09 07:11:16;;;;;;;;;;;;;;;22.84;30.39;97410.81;4959192;28;924;-82
2022/07/09 07:13:42;;;;;;;;;;;;;;;22.82;30.53;97413.34;4995136;28;923;-81
2022/07/09 07:16:07;;;;;;;;;;;;;;;22.95;29.98;97424.63;4995719;28;1007;-81
2022/07/09 07:18:33;;;;;;;;;;;;;;;22.83;30.19;97417.75;4995119;28;843;-82
2022/07/09 07:20:58;;;;;;;;;;;;;;;22.83;30.38;97417.75;4981217;28;907;-82
2022/07/09 07:23:23;;;;;;;;;;;;;;;22.88;30.38;97422.06;4978071;28;1995;-82
2022/07/09 07:25:49;;;;;;;;;;;;;;;22.82;30.47;97410.50;4978978;28;896;-83
2022/07/09 07:28:14;;;;;;;;;;;;;;;22.85;30.25;97415.25;4994303;28;1922;-82
2022/07/09 07:30:40;;;;;;;;;;;;;;;22.98;30.46;97428.56;4994332;28;1918;-82
2022/07/09 07:33:05;;;;;;;;;;;;;;;22.94;30.16;97422.22;4967216;28;1873;-80
2022/07/09 07:35:31;;;;;;;;;;;;;;;22.88;30.73;97425.69;4937132;29;1538;-82
2022/07/09 07:37:58;;;;;;;;;;;;;;;22.83;30.54;97416.97;4964747;28;1721;-81
2022/07/09 07:40:24;;;;;;;;;;;;;;;22.83;30.39;97423.44;4975439;28;868;-82
2022/07/09 07:42:49;;;;;;;;;;;;;;;22.99;30.12;97418.78;4975291;28;840;-81
2022/07/09 07:45:15;;;;;;;;;;;;;;;22.84;30.53;97419.34;4955858;29;1122;-82
2022/07/09 07:47:40;;;;;;;;;;;;;;;22.94;30.04;97422.22;4898794;29;1122;-82
2022/07/09 07:50:06;;;;;;;;;;;;;;;22.88;30.38;97431.34;4912761;29;1998;-82
2022/07/09 07:52:33;;;;;;;;;;;;;;;22.95;30.29;97418.13;4918775;29;1773;-82
2022/07/09 07:54:58;;;;;;;;;;;;;;;22.81;30.29;97428.78;4937138;29;971;-81
2022/07/09 07:57:24;;;;;;;;;;;;;;;22.91;30.20;97423.19;4935291;29;1732;-82
2022/07/09 07:59:49;;;;;;;;;;;;;;;22.95;30.03;97418.13;4921235;29;905;-82
2022/07/09 08:02:15;;;;;;;;;;;;;;;22.87;30.18;97420.47;4937294;29;910;-83
2022/07/09 08:04:40;;;;;;;;;;;;;;;22.69;30.73;97418.34;4935866;29;1667;-81
2022/07/09 08:07:06;;;;;;;;;;;;;;;22.84;30.35;97430.69;4965536;28;825;-82
2022/07/09 08:09:32;;;;;;;;;;;;;;;22.88;30.37;97430.56;4991401;28;1918;-82
2022/07/09 08:11:59;;;;;;;;;;;;;;;22.89;30.43;97432.16;4975620;28;924;-82
2022/07/09 08:14:24;;;;;;;;;;;;;;;22.94;30.26;97433.59;4975652;28;936;-81
2022/07/09 08:16:49;;;;;;;;;;;;;;;22.96;30.35;97425.41;4990312;28;819;-81
2022/07/09 08:19:15;;;;;;;;;;;;;;;23.01;30.18;97421.97;5020692;28;1644;-82
2022/07/09 08:21:41;;;;;;;;;;;;;;;22.91;30.06;97428.88;5022997;28;1648;-83
2022/07/09 08:24:06;;;;;;;;;;;;;;;22.65;30.74;97416.91;5035862;28;934;-82
2022/07/09 08:26:32;;;;;;;;;;;;;;;22.86;30.31;97416.84;5036278;28;756;-81
2022/07/09 08:28:58;;;;;;;;;;;;;;;22.87;30.33;97432.59;5032967;28;1985;-82
2022/07/09 08:31:23;;;;;;;;;;;;;;;22.77;30.32;97419.63;5014310;28;1281;-82
2022/07/09 08:33:50;;;;;;;;;;;;;;;22.63;30.19;97386.16;5013922;28;1164;-83
2022/07/09 08:36:15;;;;;;;;;;;;;;;22.88;30.38;97427.75;4974222;28;1706;-82
2022/07/09 08:38:41;;;;;;;;;;;;;;;22.99;30.21;97430.13;4975015;28;1111;-83
2022/07/09 08:41:06;;;;;;;;;;;;;;;22.92;30.41;97421.94;4975320;28;1001;-82
2022/07/09 08:43:32;;;;;;;;;;;;;;;22.88;30.24;97430.56;4974837;28;951;-81
2022/07/09 08:45:58;;;;;;;;;;;;;;;22.87;30.52;97426.91;4975093;28;936;-82
2022/07/09 08:48:23;;;;;;;;;;;;;;;22.86;30.28;97422.50;4946891;28;1755;-82
2022/07/09 08:50:49;;;;;;;;;;;;;;;22.89;30.51;97426.47;4936792;29;1985;-82
2022/07/09 08:53:16;;;;;;;;;;;;;;;22.84;30.56;97425.00;4936558;29;834;-81
2022/07/09 08:55:41;;;;;;;;;;;;;;;22.89;30.34;97420.81;4937352;29;882;-82
2022/07/09 08:58:07;;;;;;;;;;;;;;;22.80;30.31;97420.75;4936101;29;982;-82
2022/07/09 09:00:33;;;;;;;;;;;;;;;22.75;30.53;97410.81;4948649;29;1456;-82
2022/07/09 09:02:59;;;;;;;;;;;;;;;22.84;30.56;97429.88;4955443;28;928;-82
2022/07/09 09:05:24;;;;;;;;;;;;;;;22.90;30.25;97427.25;4955798;29;1095;-82
2022/07/09 09:07:50;;;;;;;;;;;;;;;23.04;30.28;97426.69;4984981;28;1002;-83
2022/07/09 09:10:22;;;;;;;;;;;;;;;22.81;30.63;97425.16;4994217;28;2013;-81
2022/07/09 09:12:47;;;;;;;;;;;;;;;22.98;30.37;97414.38;4994146;28;997;-83
2022/07/09 09:15:16;;;;;;;;;;;;;;;22.99;30.25;97413.09;4993259;28;1740;-81
2022/07/09 09:17:45;;;;;;;;;;;;;;;22.93;30.23;97421.44;4976851;28;1740;-82
2022/07/09 09:20:11;;;;;;;;;;;;;;;22.96;30.11;97414.06;4994314;28;929;-82
2022/07/09 09:22:43;;;;;;;;;;;;;;;23.03;30.19;97419.44;4993932;28;953;-82
2022/07/09 09:25:08;;;;;;;;;;;;;;;22.91;30.51;97412.63;5003007;28;832;-82
2022/07/09 09:27:34;;;;;;;;;;;;;;;22.92;30.46;97411.38;5030604;28;928;-82
2022/07/09 09:29:59;;;;;;;;;;;;;;;22.90;30.29;97421.59;5008875;28;1914;-81
2022/07/09 09:32:24;;;;;;;;;;;;;;;22.91;30.29;97417.50;5035554;28;1784;-82
2022/07/09 09:34:50;;;;;;;;;;;;;;;22.92;30.13;97414.19;5053418;28;813;-82
2022/07/09 09:37:24;;;;;;;;;;;;;;;22.84;30.29;97416.50;5056471;28;904;-82
2022/07/09 09:39:50;;;;;;;;;;;;;;;22.87;30.35;97412.72;5057000;28;946;-82
2022/07/09 09:42:15;;;;;;;;;;;;;;;22.98;30.36;97406.66;5056990;28;830;-82
2022/07/09 09:44:41;;;;;;;;;;;;;;;22.94;30.43;97423.03;5056838;28;873;-83
2022/07/09 09:47:10;;;;;;;;;;;;;;;23.00;30.10;97409.00;5061434;28;1838;-82
2022/07/09 09:49:39;;;;;;;;;;;;;;;22.92;30.16;97407.75;5036753;28;1909;-83
2022/07/09 09:52:06;;;;;;;;;;;;;;;22.96;30.44;97403.50;5053340;28;1212;-83
2022/07/09 09:54:35;;;;;;;;;;;;;;;22.85;30.38;97408.81;5036349;28;938;-83
2022/07/09 09:57:05;;;;;;;;;;;;;;;22.73;30.60;97401.97;5036857;28;941;-82
2022/07/09 09:59:30;;;;;;;;;;;;;;;23.05;30.10;97400.69;4996721;28;899;-83
2022/07/09 10:01:56;;;;;;;;;;;;;;;23.03;30.27;97408.09;4996778;28;1698;-82
2022/07/09 10:04:21;;;;;;;;;;;;;;;23.07;30.14;97403.06;4997022;28;1009;-82
2022/07/09 10:06:47;;;;;;;;;;;;;;;22.93;30.41;97392.28;4997284;28;832;-82
2022/07/09 10:09:12;;;;;;;;;;;;;;;22.84;30.60;97396.63;4996957;28;1910;-82
2022/07/09 10:11:47;;;;;;;;;;;;;;;22.85;30.35;97394.63;4997164;28;828;-82
2022/07/09 10:14:16;;;;;;;;;;;;;;;23.06;30.12;97395.81;4976510;28;1948;-82
2022/07/09 10:16:42;;;;;;;;;;;;;;;23.13;30.07;97396.28;4992762;28;1728;-82
2022/07/09 10:19:07;;;;;;;;;;;;;;;23.06;30.04;97378.78;4977287;28;1087;-83
2022/07/09 10:21:35;;;;;;;;;;;;;;;22.93;30.36;97392.28;4977220;28;922;-82
2022/07/09 10:24:01;;;;;;;;;;;;;;;22.93;30.64;97395.13;4977499;28;949;-83
2022/07/09 10:26:42;;;;;;;;;;;;;;;23.07;30.44;97389.66;5016581;28;1220;-82
2022/07/09 10:29:17;;;;;;;;;;;;;;;22.94;30.58;97393.88;5035894;28;1910;-83
2022/07/09 10:31:43;;;;;;;;;;;;;;;22.99;30.20;97401.75;5048275;28;1783;-83
2022/07/09 10:34:08;;;;;;;;;;;;;;;23.07;30.05;97380.34;5035414;28;1001;-83
2022/07/09 10:36:34;;;;;;;;;;;;;;;22.96;30.16;97385.69;4999939;28;927;-83
2022/07/09 10:38:59;;;;;;;;;;;;;;;23.02;30.28;97395.94;4999756;28;966;-82
2022/07/09 10:41:25;;;;;;;;;;;;;;;22.88;30.84;97391.66;4996149;28;1312;-82
2022/07/09 10:43:51;;;;;;;;;;;;;;;22.96;30.54;97391.38;4996440;28;934;-82
2022/07/09 10:46:16;;;;;;;;;;;;;;;22.94;30.59;97393.88;4976389;28;1879;-82
2022/07/09 10:48:42;;;;;;;;;;;;;;;23.05;30.37;97397.03;4976741;28;1066;-83
2022/07/09 10:51:07;;;;;;;;;;;;;;;22.82;30.86;97387.03;4976790;28;1987;-82
2022/07/09 10:53:33;;;;;;;;;;;;;;;23.09;30.25;97389.16;4976898;28;1031;-83
2022/07/09 10:55:58;;;;;;;;;;;;;;;23.00;30.23;97380.63;4977105;28;857;-83
2022/07/09 10:58:24;;;;;;;;;;;;;;;23.22;30.25;97391.88;4976732;28;919;-82
2022/07/09 11:00:56;;;;;;;;;;;;;;;23.09;30.19;97394.84;4989643;28;1690;-82
2022/07/09 11:03:27;;;;;;;;;;;;;;;23.16;30.20;97391.72;4996010;28;1155;-82
2022/07/09 11:05:53;;;;;;;;;;;;;;;22.72;30.12;97320.97;4974638;28;1786;-83
2022/07/09 11:08:18;;;;;;;;;;;;;;;23.06;30.20;97378.78;4976578;28;959;-83
2022/07/09 11:10:44;;;;;;;;;;;;;;;22.93;30.33;97392.28;4979352;28;1914;-82
2022/07/09 11:13:09;;;;;;;;;;;;;;;23.00;30.28;97386.31;4995835;28;977;-82
2022/07/09 11:15:35;;;;;;;;;;;;;;;23.06;30.12;97392.97;4993722;28;1777;-82
2022/07/09 11:18:04;;;;;;;;;;;;;;;23.09;30.33;97377.81;5012158;28;1023;-83
2022/07/09 11:20:30;;;;;;;;;;;;;;;22.92;30.41;97379.38;4995789;28;970;-82
2022/07/09 11:22:56;;;;;;;;;;;;;;;23.00;30.38;97369.28;4979505;28;913;-83
2022/07/09 11:25:22;;;;;;;;;;;;;;;23.01;30.41;97383.03;4995507;28;946;-82
2022/07/09 11:27:47;;;;;;;;;;;;;;;22.98;30.41;97374.66;4972497;28;951;-82
2022/07/09 11:30:14;;;;;;;;;;;;;;;22.91;30.57;97377.81;4939431;29;1986;-82
2022/07/09 11:32:40;;;;;;;;;;;;;;;22.88;30.40;97371.78;4975731;28;1116;-82
2022/07/09 11:35:06;;;;;;;;;;;;;;;23.00;30.33;97380.63;4975962;28;943;-79
2022/07/09 11:37:31;;;;;;;;;;;;;;;23.03;30.31;97379.72;4961465;28;966;-82
2022/07/09 11:39:57;;;;;;;;;;;;;;;22.97;30.37;97375.91;4956535;28;969;-82
2022/07/09 11:42:22;;;;;;;;;;;;;;;23.03;30.39;97369.16;4956249;28;1036;-81
2022/07/09 11:44:54;;;;;;;;;;;;;;;23.09;30.26;97380.66;4954794;29;1604;-83
2022/07/09 11:47:22;;;;;;;;;;;;;;;23.16;29.79;97369.03;4939899;29;1232;-82
2022/07/09 11:49:50;;;;;;;;;;;;;;;23.07;30.23;97364.13;4975708;28;1977;-82
2022/07/09 11:52:21;;;;;;;;;;;;;;;22.95;30.51;97361.41;4975474;28;949;-82
2022/07/09 11:55:00;;;;;;;;;;;;;;;23.07;30.12;97357.66;4975588;28;993;-82
2022/07/09 11:57:26;;;;;;;;;;;;;;;23.06;30.19;97358.91;4959686;28;965;-82
2022/07/09 11:59:51;;;;;;;;;;;;;;;23.17;30.02;97355.63;4969058;28;1778;-82
2022/07/09 12:02:26;;;;;;;;;;;;;;;22.40;30.44;97242.94;4956904;29;932;-83
2022/07/09 12:04:51;;;;;;;;;;;;;;;23.07;30.52;97357.66;4956181;29;928;-83
2022/07/09 12:07:17;;;;;;;;;;;;;;;23.06;30.34;97356.88;4956416;29;908;-82
2022/07/09 12:09:42;;;;;;;;;;;;;;;22.95;30.68;97355.72;4956039;29;1991;-82
2022/07/09 12:12:08;;;;;;;;;;;;;;;23.02;30.48;97344.09;4956230;29;953;-79
2022/07/09 12:14:33;;;;;;;;;;;;;;;23.06;30.23;97345.50;4960185;28;1690;-82
2022/07/09 12:16:59;;;;;;;;;;;;;;;23.10;30.21;97351.00;4975974;28;967;-82
2022/07/09 12:19:24;;;;;;;;;;;;;;;23.14;30.07;97340.31;4994647;28;1706;-82
2022/07/09 12:21:50;;;;;;;;;;;;;;;23.09;30.25;97335.25;5013201;28;1048;-82
2022/07/09 12:24:16;;;;;;;;;;;;;;;23.11;30.32;97335.59;5050783;28;1065;-82
2022/07/09 12:26:41;;;;;;;;;;;;;;;22.92;30.43;97339.66;5053736;28;1093;-83
2022/07/09 12:29:07;;;;;;;;;;;;;;;22.96;30.49;97334.63;5048880;28;1973;-82
2022/07/09 12:31:32;;;;;;;;;;;;;;;23.00;30.29;97341.72;5033882;28;1008;-82
2022/07/09 12:33:58;;;;;;;;;;;;;;;23.04;30.29;97335.88;5043165;28;1811;-82
2022/07/09 12:36:23;;;;;;;;;;;;;;;23.10;30.32;97328.31;5053638;28;946;-83
2022/07/09 12:38:48;;;;;;;;;;;;;;;23.06;30.48;97333.38;5011018;28;1889;-82
2022/07/09 12:41:14;;;;;;;;;;;;;;;23.16;30.34;97328.47;4994617;28;1168;-83
2022/07/09 12:43:39;;;;;;;;;;;;;;;23.01;30.50;97322.66;4920722;29;1356;-82
2022/07/09 12:46:05;;;;;;;;;;;;;;;23.08;30.26;97317.44;4917697;29;1126;-83
2022/07/09 12:48:30;;;;;;;;;;;;;;;23.14;30.29;97311.94;4901576;29;1041;-83
2022/07/09 12:50:56;;;;;;;;;;;;;;;23.23;30.00;97320.44;4917381;29;1915;-82
2022/07/09 12:53:21;;;;;;;;;;;;;;;23.08;30.06;97314.59;4916862;29;1583;-82
2022/07/09 12:55:47;;;;;;;;;;;;;;;23.21;30.22;97311.63;4897768;29;1678;-82